createdAt,value
2018-09-26T00:00:21.685Z,71.55
2018-09-26T00:02:54.583Z,71.97
2018-09-26T00:05:23.015Z,72.14
2018-09-26T00:07:51.199Z,72.00
2018-09-26T00:10:19.365Z,71.63
2018-09-26T00:12:47.533Z,72.00
2018-09-26T00:15:15.729Z,72.90
2018-09-26T00:17:43.939Z,72.40
2018-09-26T00:20:12.214Z,72.95
2018-09-26T00:22:40.425Z,73.12
2018-09-26T00:25:08.832Z,73.23
2018-09-26T00:27:36.933Z,72.34
2018-09-26T00:30:05.240Z,72.23
2018-09-26T00:32:33.430Z,72.10
2018-09-26T00:35:01.634Z,72.14
2018-09-26T00:37:29.853Z,71.94
2018-09-26T00:39:58.181Z,72.06
2018-09-26T00:42:26.451Z,72.71
2018-09-26T00:44:54.635Z,72.83
2018-09-26T00:47:22.882Z,72.94
2018-09-26T00:49:51.150Z,72.51
2018-09-26T00:52:19.430Z,73.47
2018-09-26T00:54:47.728Z,73.71
2018-09-26T00:57:16.333Z,73.31
2018-09-26T00:59:45.380Z,73.86
2018-09-26T01:02:13.616Z,74.31
2018-09-26T01:04:41.740Z,74.40
2018-09-26T01:07:10.056Z,74.03
2018-09-26T01:09:38.212Z,72.93
2018-09-26T01:12:06.445Z,72.76
2018-09-26T01:14:34.738Z,72.78
2018-09-26T01:17:03.083Z,72.98
2018-09-26T01:19:31.206Z,71.27
2018-09-26T01:21:59.461Z,71.27
2018-09-26T01:24:27.607Z,71.63
2018-09-26T01:26:55.961Z,70.44
2018-09-26T01:29:24.140Z,70.85
2018-09-26T01:31:53.045Z,70.32
2018-09-26T01:34:21.147Z,70.58
2018-09-26T01:36:49.461Z,70.33
2018-09-26T01:39:17.694Z,71.14
2018-09-26T01:41:46.015Z,70.91
2018-09-26T01:44:14.182Z,70.92
2018-09-26T01:46:42.277Z,70.99
2018-09-26T01:49:10.463Z,71.29
2018-09-26T01:51:38.743Z,70.75
2018-09-26T01:54:07.145Z,71.15
2018-09-26T01:56:35.522Z,70.54
2018-09-26T01:59:03.937Z,70.87
2018-09-26T02:01:32.319Z,70.59
2018-09-26T02:04:00.473Z,70.72
2018-09-26T02:06:28.871Z,71.17
2018-09-26T02:08:57.073Z,71.09
2018-09-26T02:11:25.285Z,70.26
2018-09-26T02:13:53.493Z,70.35
2018-09-26T02:18:49.415Z,70.86
2018-09-26T02:21:17.747Z,70.86
2018-09-26T02:23:45.988Z,71.06
2018-09-26T02:26:14.320Z,70.26
2018-09-26T02:28:42.415Z,70.36
2018-09-26T02:31:10.643Z,70.24
2018-09-26T02:33:39.042Z,70.54
2018-09-26T02:36:14.700Z,70.40
2018-09-26T02:38:42.842Z,69.30
2018-09-26T02:41:11.144Z,69.43
2018-09-26T02:43:39.332Z,69.93
2018-09-26T02:46:07.660Z,68.63
2018-09-26T02:48:41.619Z,69.65
2018-09-26T02:51:09.836Z,69.59
2018-09-26T02:53:38.150Z,70.23
2018-09-26T02:56:06.425Z,70.01
2018-09-26T02:58:34.674Z,69.90
2018-09-26T03:01:02.970Z,70.74
2018-09-26T03:03:31.229Z,70.80
2018-09-26T03:05:59.386Z,70.93
2018-09-26T03:08:28.430Z,71.10
2018-09-26T03:10:56.648Z,70.54
2018-09-26T03:13:24.766Z,71.09
2018-09-26T03:15:52.922Z,71.20
2018-09-26T03:18:21.110Z,71.04
2018-09-26T03:20:49.882Z,70.93
2018-09-26T03:23:18.064Z,71.11
2018-09-26T03:25:46.302Z,70.30
2018-09-26T03:28:14.506Z,70.75
2018-09-26T03:30:42.816Z,70.72
2018-09-26T03:33:11.089Z,69.82
2018-09-26T03:35:39.309Z,69.93
2018-09-26T03:38:08.406Z,69.12
2018-09-26T03:40:36.612Z,69.61
2018-09-26T03:43:04.802Z,69.91
2018-09-26T03:45:32.953Z,69.80
2018-09-26T03:48:01.259Z,69.26
2018-09-26T03:50:29.530Z,69.40
2018-09-26T03:52:57.800Z,68.50
2018-09-26T03:55:25.985Z,68.93
2018-09-26T03:57:54.094Z,68.91
2018-09-26T04:00:22.268Z,69.16
2018-09-26T04:02:50.532Z,69.23
2018-09-26T04:05:18.690Z,69.76
2018-09-26T04:07:47.544Z,69.78
2018-09-26T04:12:43.504Z,69.93
2018-09-26T04:15:11.711Z,69.81
2018-09-26T04:17:40.068Z,69.78
2018-09-26T04:20:08.717Z,69.89
2018-09-26T04:22:37.019Z,68.96
2018-09-26T04:25:05.377Z,68.89
2018-09-26T04:27:33.612Z,68.64
2018-09-26T04:30:01.905Z,68.20
2018-09-26T04:32:30.374Z,68.21
2018-09-26T04:34:58.711Z,68.65
2018-09-26T04:37:27.055Z,69.30
2018-09-26T04:39:55.293Z,68.57
2018-09-26T04:42:23.461Z,68.54
2018-09-26T04:44:51.839Z,68.89
2018-09-26T04:47:20.092Z,68.97
2018-09-26T04:49:48.605Z,68.38
2018-09-26T04:52:16.842Z,68.84
2018-09-26T04:54:45.332Z,69.26
2018-09-26T04:57:21.269Z,69.72
2018-09-26T04:59:50.576Z,70.68
2018-09-26T05:02:19.072Z,70.81
2018-09-26T05:04:48.140Z,71.16
2018-09-26T05:07:16.976Z,70.80
2018-09-26T05:09:45.157Z,70.43
2018-09-26T05:12:13.292Z,70.95
2018-09-26T05:14:41.516Z,71.11
2018-09-26T05:17:10.510Z,71.16
2018-09-26T05:19:38.774Z,71.06
2018-09-26T05:22:07.136Z,71.29
2018-09-26T05:24:35.418Z,71.52
2018-09-26T05:27:03.778Z,70.69
2018-09-26T05:29:32.076Z,71.02
2018-09-26T05:32:00.210Z,69.97
2018-09-26T05:34:28.649Z,70.10
2018-09-26T05:36:56.803Z,69.69
2018-09-26T05:39:24.977Z,69.68
2018-09-26T05:41:53.218Z,68.52
2018-09-26T05:44:22.141Z,68.78
2018-09-26T05:46:50.448Z,68.27
2018-09-26T05:49:18.714Z,68.81
2018-09-26T05:51:47.601Z,68.54
2018-09-26T05:54:15.921Z,67.96
2018-09-26T05:56:44.251Z,68.00
2018-09-26T05:59:12.385Z,66.88
2018-09-26T06:01:40.515Z,67.01
2018-09-26T06:04:08.860Z,66.72
2018-09-26T06:06:37.812Z,66.63
2018-09-26T06:09:10.761Z,65.06
2018-09-26T06:11:38.961Z,65.24
2018-09-26T06:14:07.973Z,64.46
2018-09-26T06:16:36.257Z,63.68
2018-09-26T06:19:04.605Z,63.27
2018-09-26T06:21:32.744Z,62.62
2018-09-26T06:24:00.919Z,61.85
2018-09-26T06:26:29.165Z,61.28
2018-09-26T06:28:57.495Z,60.82
2018-09-26T06:31:25.852Z,61.68
2018-09-26T06:33:54.001Z,60.51
2018-09-26T06:36:22.287Z,60.02
2018-09-26T06:38:51.025Z,59.61
2018-09-26T06:41:19.328Z,59.41
2018-09-26T06:43:47.959Z,58.68
2018-09-26T06:46:16.131Z,57.44
2018-09-26T06:48:44.387Z,56.82
2018-09-26T06:51:12.610Z,56.39
2018-09-26T06:53:40.895Z,57.00
2018-09-26T06:56:09.903Z,56.01
2018-09-26T06:58:38.227Z,55.33
2018-09-26T07:01:06.574Z,56.01
2018-09-26T07:03:34.867Z,55.83
2018-09-26T07:06:03.014Z,55.95
2018-09-26T07:08:31.233Z,55.32
2018-09-26T07:10:59.356Z,56.04
2018-09-26T07:13:27.520Z,55.43
2018-09-26T07:15:55.958Z,54.51
2018-09-26T07:18:24.168Z,53.66
2018-09-26T07:20:52.312Z,53.54
2018-09-26T07:23:20.706Z,52.29
2018-09-26T07:25:49.294Z,53.03
2018-09-26T07:28:17.455Z,53.06
2018-09-26T07:30:46.592Z,52.32
2018-09-26T07:33:14.704Z,52.54
2018-09-26T07:35:44.362Z,52.56
2018-09-26T07:38:12.616Z,52.27
2018-09-26T07:40:41.083Z,52.49
2018-09-26T07:43:09.325Z,51.67
2018-09-26T07:45:38.113Z,51.21
2018-09-26T07:48:06.711Z,51.63
2018-09-26T07:50:34.899Z,52.04
2018-09-26T07:53:03.105Z,52.15
2018-09-26T07:55:31.997Z,51.69
2018-09-26T07:58:00.145Z,51.10
2018-09-26T08:00:28.466Z,51.30
2018-09-26T08:02:56.739Z,50.69
2018-09-26T08:05:25.517Z,50.51
2018-09-26T08:07:53.825Z,50.59
2018-09-26T08:10:23.054Z,50.91
2018-09-26T08:12:52.185Z,49.45
2018-09-26T08:15:20.411Z,48.65
2018-09-26T08:17:48.730Z,48.22
2018-09-26T08:20:22.661Z,47.55
2018-09-26T08:22:51.067Z,46.77
2018-09-26T08:25:19.317Z,45.60
2018-09-26T08:27:47.465Z,45.55
2018-09-26T08:30:15.615Z,45.40
2018-09-26T08:32:44.154Z,44.99
2018-09-26T08:35:12.676Z,45.34
2018-09-26T08:37:41.570Z,44.61
2018-09-26T08:40:13.720Z,43.86
2018-09-26T08:45:19.423Z,43.43
2018-09-26T08:47:48.089Z,42.29
2018-09-26T08:50:16.793Z,43.20
2018-09-26T08:52:45.133Z,42.73
2018-09-26T08:55:13.373Z,42.57
2018-09-26T08:57:41.599Z,42.72
2018-09-26T09:00:09.843Z,41.42
2018-09-26T09:02:38.050Z,40.70
2018-09-26T09:05:06.278Z,39.59
2018-09-26T09:07:34.670Z,31.06
2018-09-26T09:10:03.304Z,26.64
2018-09-26T09:12:31.600Z,23.12
2018-09-26T09:15:00.000Z,20.29
2018-09-26T09:17:28.307Z,18.84
2018-09-26T09:19:56.478Z,15.17
2018-09-26T09:22:25.888Z,15.94
2018-09-26T09:24:54.724Z,19.14
2018-09-26T09:27:22.973Z,16.03
2018-09-26T09:29:52.272Z,14.25
2018-09-26T09:32:21.603Z,13.67
2018-09-26T09:34:49.869Z,14.01
2018-09-26T09:37:18.999Z,11.77
2018-09-26T09:39:47.836Z,12.54
2018-09-26T09:42:16.060Z,11.36
2018-09-26T09:44:44.404Z,12.32
2018-09-26T09:47:12.699Z,12.52
2018-09-26T09:49:40.988Z,12.70
2018-09-26T09:52:09.430Z,11.96
2018-09-26T09:54:37.948Z,12.26
2018-09-26T09:57:07.059Z,11.73
2018-09-26T09:59:35.199Z,12.05
2018-09-26T10:02:04.028Z,11.23
2018-09-26T10:04:32.833Z,11.19
2018-09-26T10:07:01.175Z,11.64
2018-09-26T10:09:30.022Z,11.26
2018-09-26T10:11:58.993Z,10.62
2018-09-26T10:14:27.310Z,11.43
2018-09-26T10:16:55.643Z,11.32
2018-09-26T10:19:24.065Z,10.83
2018-09-26T10:21:52.261Z,11.60
2018-09-26T10:24:20.459Z,14.39
2018-09-26T10:26:48.708Z,15.65
2018-09-26T10:29:16.902Z,17.24
2018-09-26T10:31:45.801Z,17.30
2018-09-26T10:34:13.969Z,17.67
2018-09-26T10:36:45.228Z,18.69
2018-09-26T10:39:14.439Z,20.74
2018-09-26T10:41:42.627Z,21.30
2018-09-26T10:44:10.881Z,21.89
2018-09-26T10:46:39.859Z,22.55
2018-09-26T10:49:08.252Z,24.19
2018-09-26T10:51:36.992Z,24.62
2018-09-26T10:54:05.138Z,24.53
2018-09-26T10:56:34.286Z,23.70
2018-09-26T10:59:02.420Z,23.08
2018-09-26T11:01:30.811Z,22.52
2018-09-26T11:03:59.076Z,21.26
2018-09-26T11:06:27.284Z,19.82
2018-09-26T11:08:56.534Z,16.98
2018-09-26T11:11:24.757Z,15.82
2018-09-26T11:13:54.264Z,15.27
2018-09-26T11:16:22.450Z,15.84
2018-09-26T11:18:52.144Z,17.45
2018-09-26T11:21:21.076Z,17.04
2018-09-26T11:23:49.974Z,15.05
2018-09-26T11:26:18.208Z,14.03
2018-09-26T11:28:46.297Z,12.81
2018-09-26T11:31:15.218Z,12.92
2018-09-26T11:33:43.500Z,12.70
2018-09-26T11:36:11.577Z,13.56
2018-09-26T11:38:40.939Z,14.47
2018-09-26T11:41:09.215Z,15.03
2018-09-26T11:43:38.204Z,14.63
2018-09-26T11:46:06.484Z,16.41
2018-09-26T11:48:35.843Z,15.54
2018-09-26T11:51:04.129Z,14.65
2018-09-26T11:53:33.284Z,12.71
2018-09-26T11:56:01.584Z,13.08
2018-09-26T11:58:29.696Z,13.69
2018-09-26T12:00:57.895Z,13.21
2018-09-26T12:03:26.052Z,14.69
2018-09-26T12:05:54.233Z,14.67
2018-09-26T12:08:22.603Z,13.98
2018-09-26T12:10:51.978Z,13.19
2018-09-26T12:13:20.327Z,12.94
2018-09-26T12:15:49.067Z,13.22
2018-09-26T12:18:17.425Z,12.68
2018-09-26T12:20:45.759Z,13.95
2018-09-26T12:23:14.683Z,14.57
2018-09-26T12:25:43.259Z,14.41
2018-09-26T12:28:11.428Z,15.47
2018-09-26T12:30:39.584Z,14.50
2018-09-26T12:33:07.824Z,12.79
2018-09-26T12:35:36.017Z,13.38
2018-09-26T12:38:04.400Z,13.78
2018-09-26T12:40:32.591Z,14.57
2018-09-26T12:43:00.747Z,14.62
2018-09-26T12:45:29.376Z,15.74
2018-09-26T12:47:57.567Z,15.42
2018-09-26T12:50:25.743Z,15.31
2018-09-26T12:52:53.939Z,16.02
2018-09-26T12:55:22.079Z,15.97
2018-09-26T12:57:50.348Z,17.07
2018-09-26T13:00:18.614Z,15.44
2018-09-26T13:02:46.872Z,15.44
2018-09-26T13:05:15.938Z,14.45
2018-09-26T13:07:44.145Z,15.20
2018-09-26T13:10:12.487Z,16.36
2018-09-26T13:12:40.676Z,15.37
2018-09-26T13:15:08.962Z,16.11
2018-09-26T13:17:37.284Z,17.47
2018-09-26T13:20:06.339Z,17.62
2018-09-26T13:22:35.072Z,17.19
2018-09-26T13:25:03.300Z,18.67
2018-09-26T13:27:31.534Z,17.87
2018-09-26T13:30:00.248Z,16.64
2018-09-26T13:32:28.548Z,17.60
2018-09-26T13:34:56.833Z,17.60
2018-09-26T13:37:25.105Z,17.89
2018-09-26T13:39:53.345Z,20.15
2018-09-26T13:42:21.660Z,20.43
2018-09-26T13:44:49.860Z,20.23
2018-09-26T13:47:18.132Z,20.26
2018-09-26T13:49:46.494Z,20.21
2018-09-26T13:52:14.786Z,20.54
2018-09-26T13:54:42.942Z,21.91
2018-09-26T13:57:11.411Z,21.23
2018-09-26T13:59:39.833Z,20.92
2018-09-26T14:02:08.068Z,22.13
2018-09-26T14:04:36.297Z,22.36
2018-09-26T14:07:04.635Z,21.56
2018-09-26T14:09:32.812Z,22.06
2018-09-26T14:12:01.129Z,21.67
2018-09-26T14:14:29.608Z,21.42
2018-09-26T14:16:58.093Z,20.68
2018-09-26T14:19:26.336Z,19.65
2018-09-26T14:21:54.525Z,19.73
2018-09-26T14:24:22.921Z,20.50
2018-09-26T14:26:51.103Z,20.69
2018-09-26T14:29:19.333Z,21.50
2018-09-26T14:31:47.535Z,20.98
2018-09-26T14:34:15.739Z,21.54
2018-09-26T14:36:44.093Z,21.06
2018-09-26T14:39:12.362Z,20.87
2018-09-26T14:41:40.486Z,21.36
2018-09-26T14:44:08.656Z,21.27
2018-09-26T14:46:36.751Z,22.44
2018-09-26T14:49:05.018Z,21.75
2018-09-26T14:51:33.139Z,22.00
2018-09-26T14:54:01.341Z,21.61
2018-09-26T14:56:29.550Z,22.92
2018-09-26T14:58:58.181Z,24.04
2018-09-26T15:01:26.319Z,24.86
2018-09-26T15:03:54.476Z,26.40
2018-09-26T15:06:22.858Z,26.63
2018-09-26T15:08:51.125Z,27.79
2018-09-26T15:11:19.893Z,28.80
2018-09-26T15:13:48.094Z,29.31
2018-09-26T15:16:16.415Z,28.77
2018-09-26T15:18:44.597Z,29.91
2018-09-26T15:21:13.595Z,30.12
2018-09-26T15:23:41.743Z,30.92
2018-09-26T15:26:09.957Z,31.48
2018-09-26T15:28:39.281Z,31.22
2018-09-26T15:31:08.033Z,32.01
2018-09-26T15:33:36.189Z,32.33
2018-09-26T15:36:04.528Z,32.04
2018-09-26T15:38:32.676Z,32.68
2018-09-26T15:41:00.971Z,32.37
2018-09-26T15:43:29.221Z,32.53
2018-09-26T15:45:57.407Z,33.63
2018-09-26T15:48:25.563Z,33.19
2018-09-26T15:50:53.705Z,33.74
2018-09-26T15:53:21.875Z,33.66
2018-09-26T15:55:51.163Z,33.94
2018-09-26T15:58:20.148Z,34.26
2018-09-26T16:00:49.182Z,34.14
2018-09-26T16:03:17.339Z,34.77
2018-09-26T16:05:46.280Z,35.00
2018-09-26T16:08:14.444Z,34.22
2018-09-26T16:10:42.661Z,34.40
2018-09-26T16:13:10.821Z,34.94
2018-09-26T16:15:39.091Z,35.78
2018-09-26T16:18:07.297Z,35.76
2018-09-26T16:20:35.781Z,35.59
2018-09-26T16:23:04.609Z,36.18
2018-09-26T16:25:33.135Z,35.71
2018-09-26T16:28:02.089Z,36.06
2018-09-26T16:30:30.259Z,36.39
2018-09-26T16:32:58.461Z,36.25
2018-09-26T16:35:26.707Z,37.13
2018-09-26T16:37:54.885Z,36.50
2018-09-26T16:40:23.097Z,37.18
2018-09-26T16:42:51.401Z,37.50
2018-09-26T16:45:19.693Z,37.68
2018-09-26T16:47:47.931Z,37.92
2018-09-26T16:50:16.098Z,38.57
2018-09-26T16:52:44.331Z,38.20
2018-09-26T16:55:12.604Z,39.02
2018-09-26T16:57:40.874Z,38.95
2018-09-26T17:00:09.062Z,38.76
2018-09-26T17:02:37.241Z,39.23
2018-09-26T17:05:06.435Z,39.18
2018-09-26T17:07:34.716Z,39.09
2018-09-26T17:10:02.925Z,40.11
2018-09-26T17:12:31.072Z,39.65
2018-09-26T17:14:59.268Z,39.73
2018-09-26T17:17:27.610Z,39.53
2018-09-26T17:19:55.951Z,39.38
2018-09-26T17:22:24.342Z,38.81
2018-09-26T17:24:52.542Z,38.47
2018-09-26T17:27:20.802Z,38.96
2018-09-26T17:29:49.099Z,39.52
2018-09-26T17:32:17.332Z,39.24
2018-09-26T17:34:45.807Z,38.58
2018-09-26T17:37:13.938Z,39.13
2018-09-26T17:39:42.056Z,39.69
2018-09-26T17:42:10.448Z,39.43
2018-09-26T17:44:38.570Z,40.73
2018-09-26T17:47:07.082Z,40.40
2018-09-26T17:49:35.312Z,41.03
2018-09-26T17:52:03.632Z,40.97
2018-09-26T17:54:31.823Z,41.79
2018-09-26T17:57:00.065Z,42.22
2018-09-26T17:59:28.259Z,41.98
2018-09-26T18:01:56.620Z,42.29
2018-09-26T18:04:24.960Z,42.25
2018-09-26T18:06:53.174Z,42.46
2018-09-26T18:09:22.124Z,42.86
2018-09-26T18:11:50.867Z,42.04
2018-09-26T18:14:19.026Z,42.34
2018-09-26T18:16:47.159Z,43.09
2018-09-26T18:19:15.363Z,42.81
2018-09-26T18:21:43.769Z,42.94
2018-09-26T18:24:12.119Z,43.40
2018-09-26T18:26:40.348Z,42.90
2018-09-26T18:29:08.645Z,43.46
2018-09-26T18:31:37.087Z,43.37
2018-09-26T18:34:05.401Z,42.95
2018-09-26T18:36:33.548Z,43.04
2018-09-26T18:39:01.852Z,43.17
2018-09-26T18:41:30.068Z,44.03
2018-09-26T18:43:58.231Z,44.57
2018-09-26T18:46:26.687Z,44.66
2018-09-26T18:48:54.865Z,44.22
2018-09-26T18:51:23.086Z,45.44
2018-09-26T18:53:51.311Z,45.40
2018-09-26T18:56:19.602Z,45.25
2018-09-26T18:58:47.887Z,45.50
2018-09-26T19:01:16.189Z,45.35
2018-09-26T19:03:44.366Z,45.24
2018-09-26T19:06:12.569Z,45.92
2018-09-26T19:08:40.857Z,45.72
2018-09-26T19:11:09.113Z,45.36
2018-09-26T19:13:37.532Z,44.84
2018-09-26T19:16:06.253Z,45.11
2018-09-26T19:18:34.664Z,45.11
2018-09-26T19:21:02.870Z,44.25
2018-09-26T19:23:31.091Z,43.92
2018-09-26T19:25:59.404Z,44.61
2018-09-26T19:28:27.694Z,44.01
2018-09-26T19:30:56.045Z,44.19
2018-09-26T19:33:24.477Z,44.11
2018-09-26T19:35:53.268Z,43.72
2018-09-26T19:38:21.639Z,44.46
2018-09-26T19:40:49.840Z,43.84
2018-09-26T19:43:18.176Z,44.45
2018-09-26T19:45:47.019Z,44.77
2018-09-26T19:48:15.436Z,44.77
2018-09-26T19:50:43.964Z,44.37
2018-09-26T19:53:12.246Z,44.65
2018-09-26T19:55:40.568Z,45.11
2018-09-26T19:58:08.852Z,45.04
2018-09-26T20:00:37.065Z,45.31
2018-09-26T20:03:05.383Z,45.81
2018-09-26T20:05:33.598Z,45.95
2018-09-26T20:08:01.849Z,45.59
2018-09-26T20:10:30.121Z,45.95
2018-09-26T20:12:58.453Z,45.43
2018-09-26T20:15:26.989Z,46.63
2018-09-26T20:17:55.264Z,46.22
2018-09-26T20:20:23.561Z,45.95
2018-09-26T20:22:51.830Z,46.68
2018-09-26T20:25:20.575Z,46.80
2018-09-26T20:27:48.717Z,46.33
2018-09-26T20:30:17.481Z,46.79
2018-09-26T20:32:45.755Z,46.57
2018-09-26T20:35:13.975Z,46.81
2018-09-26T20:37:43.058Z,46.92
2018-09-26T20:40:11.211Z,46.71
2018-09-26T20:42:39.437Z,46.84
2018-09-26T20:45:07.736Z,47.39
2018-09-26T20:47:35.940Z,47.45
2018-09-26T20:50:04.869Z,47.60
2018-09-26T20:52:33.065Z,47.60
2018-09-26T20:55:01.931Z,47.72
2018-09-26T20:57:30.160Z,47.34
2018-09-26T20:59:58.345Z,46.94
2018-09-26T21:02:26.778Z,46.37
2018-09-26T21:04:55.229Z,46.21
2018-09-26T21:07:23.512Z,45.48
2018-09-26T21:09:51.845Z,46.24
2018-09-26T21:12:20.014Z,45.64
2018-09-26T21:14:48.282Z,45.94
2018-09-26T21:17:17.300Z,45.43
2018-09-26T21:19:45.624Z,45.89
2018-09-26T21:22:13.914Z,46.11
2018-09-26T21:24:43.238Z,46.45
2018-09-26T21:27:11.451Z,46.42
2018-09-26T21:29:39.759Z,46.21
2018-09-26T21:32:07.957Z,45.92
2018-09-26T21:34:36.226Z,45.88
2018-09-26T21:37:04.525Z,46.66
2018-09-26T21:39:32.809Z,46.26
2018-09-26T21:42:01.145Z,47.34
2018-09-26T21:44:29.292Z,47.39
2018-09-26T21:46:57.567Z,46.95
2018-09-26T21:49:26.473Z,47.29
2018-09-26T21:51:55.100Z,48.08
2018-09-26T21:54:24.085Z,47.25
2018-09-26T21:56:52.310Z,47.16
2018-09-26T21:59:20.404Z,47.81
2018-09-26T22:01:48.662Z,47.48
2018-09-26T22:04:17.103Z,47.67
2018-09-26T22:06:45.353Z,47.77
2018-09-26T22:09:13.701Z,47.69
2018-09-26T22:11:42.232Z,48.30
2018-09-26T22:14:10.616Z,48.22
2018-09-26T22:16:38.796Z,48.22
2018-09-26T22:19:06.965Z,48.63
2018-09-26T22:21:35.242Z,48.86
2018-09-26T22:24:04.300Z,48.99
2018-09-26T22:26:33.097Z,48.39
2018-09-26T22:29:02.366Z,48.18
2018-09-26T22:31:34.175Z,48.32
2018-09-26T22:34:02.614Z,48.12
2018-09-26T22:36:30.783Z,48.88
2018-09-26T22:38:59.118Z,48.52
2018-09-26T22:41:28.053Z,48.82
2018-09-26T22:43:56.305Z,48.57
2018-09-26T22:46:24.528Z,48.37
2018-09-26T22:48:52.848Z,48.36
2018-09-26T22:51:21.072Z,49.16
2018-09-26T22:53:49.445Z,48.61
2018-09-26T22:56:17.549Z,48.78
2018-09-26T22:58:45.830Z,49.02
2018-09-26T23:01:14.025Z,49.18
2018-09-26T23:03:42.368Z,48.95
2018-09-26T23:06:11.436Z,48.40
2018-09-26T23:08:39.613Z,48.09
2018-09-26T23:11:07.929Z,48.17
2018-09-26T23:13:36.393Z,47.53
2018-09-26T23:16:04.747Z,47.79
2018-09-26T23:18:32.921Z,46.97
2018-09-26T23:21:01.208Z,47.11
2018-09-26T23:23:30.443Z,47.63
2018-09-26T23:25:58.762Z,46.52
2018-09-26T23:28:27.721Z,47.06
2018-09-26T23:30:56.407Z,47.11
2018-09-26T23:33:25.158Z,46.36
2018-09-26T23:35:53.571Z,46.86
2018-09-26T23:38:22.573Z,46.53
2018-09-26T23:40:51.975Z,46.78
2018-09-26T23:43:20.205Z,46.35
2018-09-26T23:45:49.939Z,46.89
2018-09-26T23:48:18.163Z,46.67
2018-09-26T23:50:47.639Z,47.14
2018-09-26T23:53:15.911Z,46.54
2018-09-26T23:55:44.321Z,47.00
2018-09-26T23:58:12.488Z,47.85
